Time;durP1;ratioP1;P1;durP2;ratioP2;P2;SDS_P1;SDS_P2;PMS_P1;PMS_P2;Temp;Humidity;BMP_temperature;BMP_pressure;BME280_temperature;BME280_humidity;BME280_pressure;Samples;Min_cycle;Max_cycle;Signal;HPM_P1;HPM_P2
2023/12/20 00:03:41;;;;;;;3.80;2.60;;;;;;;8.93;100.00;99665.70;181715;1252;44031;-83
2023/12/20 00:07:44;;;;;;;3.70;3.00;;;;;;;8.90;100.00;99668.80;181779;1256;44033;-84
2023/12/20 00:11:48;;;;;;;7.30;3.00;;;;;;;8.83;100.00;99672.36;181825;1254;43953;-85
2023/12/20 00:15:51;;;;;;;5.00;3.70;;;;;;;8.79;100.00;99666.89;181584;1254;43733;-85
2023/12/20 00:19:54;;;;;;;6.00;2.70;;;;;;;8.73;100.00;99656.89;181751;1254;59249;-84
2023/12/20 00:23:58;;;;;;;4.10;3.20;;;;;;;8.62;100.00;99646.69;181578;1254;44029;-85
2023/12/20 00:28:02;;;;;;;4.20;3.40;;;;;;;8.57;100.00;99654.33;181905;1253;43820;-85
2023/12/20 00:32:05;;;;;;;2.90;2.60;;;;;;;8.50;100.00;99659.87;181910;1254;44334;-85
2023/12/20 00:36:09;;;;;;;7.90;4.20;;;;;;;8.46;100.00;99650.29;181571;1256;44237;-85
2023/12/20 00:40:13;;;;;;;9.70;4.00;;;;;;;8.44;100.00;99650.09;181502;1254;57884;-84
2023/12/20 00:44:16;;;;;;;6.30;3.70;;;;;;;8.39;100.00;99649.95;181651;1252;43851;-84
2023/12/20 00:48:19;;;;;;;7.60;4.80;;;;;;;8.31;100.00;99641.61;181884;1253;44212;-84
2023/12/20 00:52:22;;;;;;;3.50;3.20;;;;;;;8.30;100.00;99639.37;181701;1254;44113;-85
2023/12/20 00:56:25;;;;;;;3.70;3.40;;;;;;;8.28;100.00;99620.32;181870;1253;43787;-85
2023/12/20 01:00:28;;;;;;;3.70;2.50;;;;;;;8.21;100.00;99626.54;181802;1254;58180;-84
2023/12/20 01:04:32;;;;;;;3.40;3.10;;;;;;;8.18;100.00;99628.20;181604;1252;43924;-85
2023/12/20 01:08:35;;;;;;;3.00;2.70;;;;;;;8.11;100.00;99635.25;181783;1256;44352;-84
2023/12/20 01:12:38;;;;;;;5.20;2.30;;;;;;;8.11;100.00;99638.77;181581;1254;43821;-85
2023/12/20 01:16:41;;;;;;;8.90;4.00;;;;;;;8.03;100.00;99640.73;181677;1254;43798;-83
2023/12/20 01:20:44;;;;;;;4.20;3.10;;;;;;;7.99;100.00;99646.11;181793;1254;59589;-83
2023/12/20 01:24:47;;;;;;;3.50;3.20;;;;;;;7.87;100.00;99636.66;181539;1254;43948;-84
2023/12/20 01:28:50;;;;;;;4.90;3.50;;;;;;;7.83;100.00;99634.02;181828;1253;44156;-84
2023/12/20 01:32:54;;;;;;;3.00;2.70;;;;;;;7.80;100.00;99630.50;181667;1253;43915;-84
2023/12/20 01:36:57;;;;;;;3.40;1.90;;;;;;;7.78;100.00;99626.28;181865;1254;44393;-84
2023/12/20 01:41:00;;;;;;;3.30;2.90;;;;;;;7.73;100.00;99611.84;181645;1253;60834;-84
2023/12/20 01:45:04;;;;;;;4.20;2.70;;;;;;;7.70;100.00;99611.60;181668;1254;43962;-85
2023/12/20 01:49:07;;;;;;;3.00;2.40;;;;;;;7.57;100.00;99607.69;181894;1254;44092;-84
2023/12/20 01:53:12;;;;;;;3.20;2.70;;;;;;;7.56;100.00;99604.70;181692;1255;44261;-84
2023/12/20 01:57:15;;;;;;;2.40;2.00;;;;;;;7.49;100.00;99598.96;181644;1254;43806;-84
2023/12/20 02:01:19;;;;;;;4.00;2.80;;;;;;;7.51;100.00;99595.06;181805;1254;58740;-84
2023/12/20 02:05:23;;;;;;;2.90;2.50;;;;;;;7.57;100.00;99593.68;181695;1256;44102;-84
2023/12/20 02:09:27;;;;;;;2.60;2.40;;;;;;;7.56;100.00;99592.71;181592;1254;44587;-85
2023/12/20 02:13:31;;;;;;;2.40;2.00;;;;;;;7.55;100.00;99588.74;181706;1254;43746;-82
2023/12/20 02:17:35;;;;;;;1.20;1.10;;;;;;;7.52;100.00;99588.14;181650;1253;43969;-84
2023/12/20 02:21:38;;;;;;;1.30;1.20;;;;;;;7.50;100.00;99573.84;181763;1253;60475;-84
2023/12/20 02:25:42;;;;;;;1.10;0.80;;;;;;;7.48;100.00;99574.16;181683;1255;45832;-85
2023/12/20 02:29:48;;;;;;;2.60;1.40;;;;;;;7.42;100.00;99570.59;181879;1254;44242;-85
2023/12/20 02:33:51;;;;;;;6.30;4.10;;;;;;;7.38;100.00;99572.81;181668;1254;44141;-84
2023/12/20 02:37:54;;;;;;;6.80;2.50;;;;;;;7.37;100.00;99570.25;181837;1254;44003;-85
2023/12/20 02:41:57;;;;;;;5.80;2.30;;;;;;;7.36;100.00;99564.92;181881;1254;57199;-85
2023/12/20 02:46:00;;;;;;;4.00;2.40;;;;;;;7.34;100.00;99559.55;181823;1254;43992;-82
2023/12/20 02:50:03;;;;;;;4.30;1.30;;;;;;;7.36;100.00;99557.77;181895;1254;43853;-85
2023/12/20 02:54:06;;;;;;;2.10;1.40;;;;;;;7.35;100.00;99556.15;181632;1253;43922;-84
2023/12/20 02:58:09;;;;;;;1.50;1.40;;;;;;;7.31;100.00;99557.53;181656;1254;44153;-84
2023/12/20 03:02:12;;;;;;;1.80;1.30;;;;;;;7.34;100.00;99563.67;181879;1254;58686;-85
2023/12/20 03:06:19;;;;;;;0.90;0.80;;;;;;;7.30;100.00;99561.82;181851;1254;43914;-84
2023/12/20 03:10:23;;;;;;;2.80;1.30;;;;;;;7.27;100.00;99555.70;181601;1254;44042;-84
2023/12/20 03:14:29;;;;;;;1.50;1.10;;;;;;;7.27;100.00;99555.13;181826;1253;44081;-84
2023/12/20 03:18:32;;;;;;;2.10;1.30;;;;;;;7.22;100.00;99545.37;181823;1254;44085;-84
2023/12/20 03:22:35;;;;;;;1.30;1.00;;;;;;;7.18;100.00;99540.31;181805;1254;59305;-84
2023/12/20 03:26:38;;;;;;;1.10;0.60;;;;;;;7.15;100.00;99536.16;181837;1254;43963;-85
2023/12/20 03:30:41;;;;;;;2.90;1.00;;;;;;;7.12;100.00;99538.35;181796;1254;44148;-85
2023/12/20 03:34:44;;;;;;;1.50;0.50;;;;;;;7.11;100.00;99546.05;181774;1254;44104;-84
2023/12/20 03:38:47;;;;;;;1.70;1.30;;;;;;;7.09;100.00;99546.01;181868;1253;44279;-85
2023/12/20 03:42:51;;;;;;;2.10;1.40;;;;;;;7.08;100.00;99546.62;181796;1254;59253;-84
2023/12/20 03:46:54;;;;;;;1.90;0.90;;;;;;;7.08;100.00;99546.29;181579;1254;43946;-85
2023/12/20 03:50:57;;;;;;;2.00;0.90;;;;;;;7.09;100.00;99544.60;181728;1258;44091;-85
2023/12/20 03:55:00;;;;;;;1.30;0.60;;;;;;;7.10;100.00;99546.30;181957;1251;44074;-84
2023/12/20 03:59:03;;;;;;;1.10;0.70;;;;;;;7.11;100.00;99550.08;181842;1251;43950;-85
2023/12/20 04:03:07;;;;;;;1.80;1.10;;;;;;;7.13;100.00;99555.08;181934;1251;58282;-87
2023/12/20 04:07:10;;;;;;;1.50;1.20;;;;;;;7.08;100.00;99558.58;181964;1251;43870;-86
2023/12/20 04:11:13;;;;;;;0.80;0.50;;;;;;;7.06;100.00;99549.95;181964;1251;44024;-86
2023/12/20 04:15:16;;;;;;;1.90;1.60;;;;;;;7.00;100.00;99548.65;182021;1251;44264;-85
2023/12/20 04:19:20;;;;;;;1.30;1.00;;;;;;;6.97;100.00;99544.98;182023;1253;44113;-86
2023/12/20 04:23:23;;;;;;;1.20;1.10;;;;;;;6.97;100.00;99542.70;181898;1251;59416;-87
2023/12/20 04:27:27;;;;;;;1.40;1.00;;;;;;;6.96;100.00;99538.73;181904;1253;44185;-88
2023/12/20 04:31:30;;;;;;;1.10;1.00;;;;;;;6.89;100.00;99530.64;181992;1251;44010;-87
2023/12/20 04:35:33;;;;;;;1.30;1.20;;;;;;;6.89;100.00;99538.95;181941;1251;43796;-87
2023/12/20 04:39:37;;;;;;;5.00;2.00;;;;;;;6.95;100.00;99538.10;181905;1251;44114;-88
2023/12/20 04:43:40;;;;;;;1.00;0.90;;;;;;;6.90;100.00;99537.41;182021;1251;57538;-86
2023/12/20 04:47:43;;;;;;;4.30;2.00;;;;;;;6.90;100.00;99534.13;181863;1253;43829;-88
2023/12/20 04:51:47;;;;;;;1.40;0.80;;;;;;;6.91;100.00;99530.14;181911;1251;44005;-88
2023/12/20 04:55:51;;;;;;;2.20;1.30;;;;;;;6.90;100.00;99527.01;181994;1251;43858;-86
2023/12/20 04:59:54;;;;;;;4.10;2.10;;;;;;;6.93;100.00;99525.92;181905;1255;44268;-87
2023/12/20 05:03:57;;;;;;;1.50;1.20;;;;;;;6.92;100.00;99518.75;181998;1251;57754;-87
2023/12/20 05:08:01;;;;;;;1.70;1.40;;;;;;;6.86;100.00;99525.73;181745;1251;44072;-87
2023/12/20 05:12:05;;;;;;;1.80;0.80;;;;;;;6.85;100.00;99528.61;181980;1251;43915;-85
2023/12/20 05:16:09;;;;;;;1.40;0.90;;;;;;;6.87;100.00;99526.77;181685;1251;44016;-87
2023/12/20 05:20:12;;;;;;;4.30;1.90;;;;;;;6.87;100.00;99533.98;182002;1253;44216;-86
2023/12/20 05:24:15;;;;;;;1.80;1.40;;;;;;;6.87;100.00;99531.29;181885;1251;58336;-86
2023/12/20 05:28:18;;;;;;;1.10;0.90;;;;;;;6.87;100.00;99531.01;182023;1250;44078;-85
2023/12/20 05:32:22;;;;;;;1.50;1.30;;;;;;;6.87;100.00;99537.48;181960;1252;43876;-85
2023/12/20 05:36:26;;;;;;;1.30;1.20;;;;;;;6.89;100.00;99544.20;181863;1251;43905;-86
2023/12/20 05:40:29;;;;;;;1.20;0.90;;;;;;;6.84;100.00;99543.90;181812;1251;43893;-86
2023/12/20 05:44:32;;;;;;;2.20;1.30;;;;;;;6.78;100.00;99544.36;181906;1251;58230;-86
2023/12/20 05:48:35;;;;;;;1.90;1.10;;;;;;;6.76;100.00;99543.83;181962;1251;44068;-86
2023/12/20 05:52:39;;;;;;;0.80;0.60;;;;;;;6.71;100.00;99539.58;181995;1253;44020;-86
2023/12/20 05:56:42;;;;;;;1.60;1.00;;;;;;;6.67;100.00;99540.23;181790;1251;44425;-86
2023/12/20 06:00:45;;;;;;;0.60;0.60;;;;;;;6.66;100.00;99537.30;181793;1251;44171;-87
2023/12/20 06:04:49;;;;;;;1.40;0.60;;;;;;;6.61;100.00;99528.59;181765;1251;58203;-86
2023/12/20 06:08:52;;;;;;;0.50;0.50;;;;;;;6.55;100.00;99533.41;181907;1251;43863;-87
2023/12/20 06:12:57;;;;;;;5.00;0.50;;;;;;;6.52;100.00;99534.86;181956;1250;43843;-85
2023/12/20 06:17:01;;;;;;;0.60;0.60;;;;;;;6.50;100.00;99537.55;181763;1251;43836;-86
2023/12/20 06:21:04;;;;;;;1.90;0.80;;;;;;;6.46;100.00;99540.30;181954;1251;43980;-85
2023/12/20 06:25:08;;;;;;;0.50;0.50;;;;;;;6.40;100.00;99544.77;181793;1251;59570;-87
2023/12/20 06:29:11;;;;;;;0.60;0.30;;;;;;;6.39;100.00;99545.39;181802;1251;44262;-87
2023/12/20 06:33:15;;;;;;;1.10;0.50;;;;;;;6.40;100.00;99546.16;181923;1251;44090;-84
2023/12/20 06:37:18;;;;;;;0.50;0.30;;;;;;;6.33;100.00;99550.04;181955;1251;43891;-86
2023/12/20 06:41:24;;;;;;;1.50;0.60;;;;;;;6.29;100.00;99550.02;181905;1251;43946;-87
2023/12/20 06:45:27;;;;;;;0.20;0.20;;;;;;;6.32;100.00;99556.13;181894;1251;59391;-86
2023/12/20 06:49:30;;;;;;;0.40;0.30;;;;;;;6.28;100.00;99556.27;181986;1251;44130;-86
2023/12/20 06:53:34;;;;;;;1.30;0.80;;;;;;;6.27;100.00;99559.51;181969;1251;43780;-86
2023/12/20 06:57:37;;;;;;;0.50;0.40;;;;;;;6.20;100.00;99554.95;181980;1251;43978;-86
2023/12/20 07:01:40;;;;;;;0.60;0.30;;;;;;;6.18;100.00;99560.04;181956;1251;44157;-86
2023/12/20 07:05:44;;;;;;;0.40;0.40;;;;;;;6.19;100.00;99562.37;181986;1251;59990;-85
2023/12/20 07:09:47;;;;;;;0.30;0.30;;;;;;;6.17;100.00;99564.29;181980;1251;44318;-85
2023/12/20 07:13:50;;;;;;;3.20;0.20;;;;;;;6.15;100.00;99574.50;182005;1250;43779;-85
2023/12/20 07:17:54;;;;;;;0.40;0.20;;;;;;;6.13;100.00;99577.95;181930;1251;44039;-86
2023/12/20 07:21:57;;;;;;;1.30;0.70;;;;;;;6.14;100.00;99580.35;182022;1251;43939;-86
2023/12/20 07:26:01;;;;;;;1.70;0.50;;;;;;;6.15;100.00;99580.77;181935;1251;57199;-85
2023/12/20 07:30:04;;;;;;;0.30;0.30;;;;;;;6.16;100.00;99584.27;181827;1251;44218;-87
2023/12/20 07:34:08;;;;;;;0.60;0.40;;;;;;;6.18;100.00;99585.05;181684;1251;43829;-86
2023/12/20 07:38:12;;;;;;;0.60;0.40;;;;;;;6.15;100.00;99583.48;181831;1250;43956;-86
2023/12/20 07:42:15;;;;;;;3.10;1.40;;;;;;;6.17;100.00;99584.88;181869;1251;44060;-85
2023/12/20 07:46:22;;;;;;;0.80;0.80;;;;;;;6.21;100.00;99588.42;181919;1251;57086;-85
2023/12/20 07:50:27;;;;;;;1.60;1.10;;;;;;;6.22;100.00;99589.09;182072;1251;43732;-87
2023/12/20 07:54:30;;;;;;;0.90;0.60;;;;;;;6.24;100.00;99588.27;181983;1250;43950;-86
2023/12/20 07:58:33;;;;;;;2.00;0.60;;;;;;;6.25;100.00;99597.64;181963;1251;44148;-86
2023/12/20 08:02:53;;;;;;;0.80;0.50;;;;;;;6.29;100.00;99590.66;181901;1251;43816;-86
2023/12/20 08:06:56;;;;;;;2.50;1.60;;;;;;;6.33;100.00;99599.55;181903;1251;58037;-86
2023/12/20 08:11:00;;;;;;;1.30;0.80;;;;;;;6.37;100.00;99598.00;181850;1251;43829;-87
2023/12/20 08:15:04;;;;;;;1.30;0.90;;;;;;;6.38;100.00;99606.52;181967;1251;45115;-87
2023/12/20 08:19:07;;;;;;;1.00;0.80;;;;;;;6.40;100.00;99612.40;181948;1251;44041;-86
2023/12/20 08:23:11;;;;;;;1.40;1.10;;;;;;;6.45;100.00;99604.10;181995;1251;43816;-86
2023/12/20 08:27:14;;;;;;;2.60;1.80;;;;;;;6.46;100.00;99599.98;181975;1251;58095;-86
2023/12/20 08:31:18;;;;;;;1.20;0.60;;;;;;;6.51;100.00;99590.88;181903;1251;43854;-86
2023/12/20 08:35:22;;;;;;;0.80;0.80;;;;;;;6.51;100.00;99599.27;181944;1251;44263;-86
2023/12/20 08:39:25;;;;;;;1.00;0.70;;;;;;;6.52;100.00;99602.74;182021;1251;44000;-87
2023/12/20 08:43:28;;;;;;;1.80;0.80;;;;;;;6.57;100.00;99601.44;181956;1251;44094;-87
2023/12/20 08:47:31;;;;;;;3.10;1.70;;;;;;;6.61;100.00;99591.81;182034;1251;59540;-87
2023/12/20 08:51:35;;;;;;;1.80;1.10;;;;;;;6.65;100.00;99599.45;181836;1251;44196;-85
2023/12/20 08:55:38;;;;;;;1.70;1.00;;;;;;;6.74;100.00;99604.06;181849;1251;43808;-85
2023/12/20 08:59:41;;;;;;;1.40;1.20;;;;;;;6.81;100.00;99609.52;181784;1251;195687;-87
2023/12/20 09:03:44;;;;;;;1.40;1.10;;;;;;;6.89;100.00;99611.55;181960;1250;44057;-86
2023/12/20 09:07:47;;;;;;;1.30;1.00;;;;;;;6.88;100.00;99612.11;182086;1251;58419;-86
2023/12/20 09:11:51;;;;;;;1.20;1.10;;;;;;;6.90;100.00;99614.98;181963;1251;44155;-86
2023/12/20 09:15:55;;;;;;;1.30;1.20;;;;;;;6.94;100.00;99627.20;181983;1251;43841;-87
2023/12/20 09:19:59;;;;;;;3.00;2.30;;;;;;;7.00;100.00;99632.56;181917;1251;45674;-85
2023/12/20 09:24:03;;;;;;;4.40;2.40;;;;;;;7.05;100.00;99639.56;181968;1251;43925;-86
2023/12/20 09:28:06;;;;;;;6.20;1.60;;;;;;;7.00;100.00;99645.08;181889;1251;58208;-86
2023/12/20 09:32:09;;;;;;;2.00;1.10;;;;;;;7.00;100.00;99651.43;182038;1250;43966;-86
2023/12/20 09:36:13;;;;;;;4.30;1.60;;;;;;;6.86;100.00;99639.08;182032;1250;43893;-86
2023/12/20 09:40:19;;;;;;;1.70;1.10;;;;;;;6.74;100.00;99638.27;182025;1250;43865;-85
2023/12/20 09:44:23;;;;;;;2.30;1.60;;;;;;;6.69;100.00;99637.01;181931;1251;44017;-86
2023/12/20 09:48:27;;;;;;;1.00;0.90;;;;;;;6.59;100.00;99631.95;181791;1251;59734;-85
2023/12/20 09:52:31;;;;;;;2.60;1.70;;;;;;;6.61;100.00;99632.70;182018;1249;44136;-85
2023/12/20 09:56:35;;;;;;;2.60;1.80;;;;;;;6.50;100.00;99629.12;181958;1251;43950;-86
2023/12/20 10:00:38;;;;;;;3.60;1.90;;;;;;;6.39;100.00;99626.59;181956;1251;43870;-86
2023/12/20 10:04:47;;;;;;;2.50;1.50;;;;;;;6.36;100.00;99619.54;182014;1250;43785;-86
2023/12/20 10:08:52;;;;;;;3.40;2.80;;;;;;;6.38;100.00;99621.52;182031;1251;59486;-87
2023/12/20 10:13:04;;;;;;;2.30;2.00;;;;;;;6.51;100.00;99616.55;182101;1251;45611;-86
2023/12/20 10:17:08;;;;;;;5.00;2.50;;;;;;;6.72;100.00;99620.98;182068;1251;44185;-86
2023/12/20 10:21:11;;;;;;;7.00;2.50;;;;;;;6.89;100.00;99609.39;182033;1250;44044;-86
2023/12/20 10:25:14;;;;;;;4.50;2.30;;;;;;;6.98;100.00;99598.52;182004;1251;43743;-84
2023/12/20 10:29:18;;;;;;;4.20;2.30;;;;;;;7.19;100.00;99598.44;181964;1251;59495;-87
2023/12/20 10:33:28;;;;;;;2.40;1.50;;;;;;;7.30;100.00;99592.88;182063;1250;44115;-86
2023/12/20 10:37:35;;;;;;;5.30;1.50;;;;;;;7.42;100.00;99582.18;181858;1250;44034;-85
2023/12/20 10:41:41;;;;;;;6.40;2.10;;;;;;;7.55;100.00;99582.93;181872;1251;44145;-85
2023/12/20 10:45:44;;;;;;;6.30;2.80;;;;;;;7.69;100.00;99576.88;182051;1251;43812;-86
2023/12/20 10:49:48;;;;;;;3.10;1.80;;;;;;;7.86;100.00;99569.70;182022;1251;60667;-86
2023/12/20 10:53:53;;;;;;;2.30;1.80;;;;;;;7.92;100.00;99565.35;181923;1251;44962;-86
2023/12/20 10:58:08;;;;;;;6.20;1.50;;;;;;;7.97;100.00;99549.00;181797;1251;44107;-85
2023/12/20 11:02:11;;;;;;;3.90;1.50;;;;;;;7.94;100.00;99550.48;182047;1251;43796;-87
2023/12/20 11:06:42;;;;;;;3.50;1.40;;;;;;;7.88;100.00;99541.31;181882;1251;43758;-86
2023/12/20 11:10:59;;;;;;;3.80;1.30;;;;;;;7.78;100.00;99540.70;181986;1251;58207;-85
2023/12/20 11:15:04;;;;;;;2.10;1.20;;;;;;;7.79;100.00;99543.59;181966;1251;44649;-86
2023/12/20 11:19:07;;;;;;;3.10;1.40;;;;;;;7.84;100.00;99542.50;182013;1251;44200;-86
2023/12/20 11:23:11;;;;;;;3.80;1.60;;;;;;;7.97;100.00;99535.95;181987;1251;44195;-86
2023/12/20 11:27:14;;;;;;;2.60;1.50;;;;;;;8.04;100.00;99523.55;181865;1251;43881;-86
2023/12/20 11:31:17;;;;;;;2.40;1.10;;;;;;;8.09;100.00;99511.09;181897;1251;56936;-86
2023/12/20 11:35:21;;;;;;;3.20;1.30;;;;;;;8.11;99.84;99504.65;181824;1251;43773;-86
2023/12/20 11:39:26;;;;;;;2.90;1.50;;;;;;;8.09;99.95;99506.70;182021;1250;43924;-86
2023/12/20 11:43:32;;;;;;;4.70;2.10;;;;;;;8.03;99.74;99502.79;181990;1251;43809;-86
2023/12/20 11:47:35;;;;;;;;;;;;;;;7.98;99.73;99492.41;181944;1251;43746;-85
2023/12/20 11:51:42;;;;;;;3.30;1.30;;;;;;;7.96;99.38;99479.72;181965;1251;59893;-87
2023/12/20 11:55:47;;;;;;;;;;;;;;;7.93;100.00;99485.46;182027;1250;43852;-86
2023/12/20 11:59:50;;;;;;;1.60;1.40;;;;;;;7.88;99.36;99478.09;182056;1251;43891;-86
2023/12/20 12:04:04;;;;;;;2.00;1.20;;;;;;;7.86;99.62;99479.13;181980;1250;44144;-86
2023/12/20 12:08:07;;;;;;;7.00;1.20;;;;;;;7.86;100.00;99477.58;181905;1251;44190;-87
2023/12/20 12:12:12;;;;;;;2.30;1.50;;;;;;;7.87;100.00;99468.27;182103;1251;58015;-86
2023/12/20 12:16:22;;;;;;;2.90;1.60;;;;;;;7.75;100.00;99460.41;181874;1250;44164;-85
2023/12/20 12:20:25;;;;;;;4.40;2.00;;;;;;;7.71;100.00;99456.88;181998;1250;43966;-85
2023/12/20 12:24:29;;;;;;;6.10;1.50;;;;;;;7.69;100.00;99450.88;181972;1251;44109;-86
2023/12/20 12:28:34;;;;;;;3.10;1.30;;;;;;;7.69;100.00;99443.84;181911;1251;43759;-86
2023/12/20 12:32:38;;;;;;;2.90;1.60;;;;;;;7.72;100.00;99445.20;182057;1251;59543;-84
2023/12/20 12:36:41;;;;;;;2.50;1.30;;;;;;;7.77;100.00;99443.33;181864;1251;44130;-86
2023/12/20 12:40:46;;;;;;;5.40;1.80;;;;;;;7.74;100.00;99432.96;181990;1251;44269;-85
2023/12/20 12:44:49;;;;;;;3.10;1.10;;;;;;;7.75;99.93;99424.47;182008;1250;44120;-86
2023/12/20 12:48:52;;;;;;;5.30;2.50;;;;;;;7.71;98.69;99416.62;182111;1251;43697;-85
2023/12/20 12:52:55;;;;;;;3.20;1.80;;;;;;;7.71;97.80;99415.45;181949;1251;58661;-86
2023/12/20 12:56:59;;;;;;;4.80;2.00;;;;;;;7.76;98.38;99410.79;181915;1251;44301;-85
2023/12/20 13:01:03;;;;;;;3.70;1.40;;;;;;;7.81;98.72;99403.96;181950;1250;44252;-86
2023/12/20 13:05:07;;;;;;;7.50;1.90;;;;;;;7.79;98.02;99396.21;181901;1251;44009;-85
2023/12/20 13:09:11;;;;;;;10.80;2.50;;;;;;;7.75;97.86;99385.40;182012;1250;44073;-85
2023/12/20 13:13:14;;;;;;;3.80;1.30;;;;;;;7.77;98.37;99390.73;181964;1251;57899;-86
2023/12/20 13:17:18;;;;;;;1.90;1.50;;;;;;;7.68;98.42;99392.85;181843;1252;44119;-85
2023/12/20 13:21:21;;;;;;;8.00;1.80;;;;;;;7.62;98.51;99383.14;181912;1250;43936;-86
2023/12/20 13:25:24;;;;;;;2.20;1.50;;;;;;;7.60;99.72;99394.30;181940;1251;43974;-86
2023/12/20 13:29:28;;;;;;;3.50;2.20;;;;;;;7.63;100.00;99388.60;182047;1251;43863;-86
2023/12/20 13:33:31;;;;;;;12.00;1.80;;;;;;;7.61;99.53;99388.01;181876;1251;59825;-85
2023/12/20 13:37:35;;;;;;;4.30;1.80;;;;;;;7.61;99.10;99381.88;181991;1251;44419;-86
2023/12/20 13:41:38;;;;;;;5.50;2.30;;;;;;;7.60;99.73;99366.39;182088;1251;43756;-85
2023/12/20 13:45:41;;;;;;;3.60;1.70;;;;;;;7.57;98.55;99365.17;181978;1251;44213;-86
2023/12/20 13:49:45;;;;;;;4.10;2.20;;;;;;;7.56;99.14;99363.02;181977;1251;43972;-85
2023/12/20 13:53:48;;;;;;;3.10;2.20;;;;;;;7.52;97.89;99355.59;182045;1251;59387;-86
2023/12/20 13:57:52;;;;;;;2.50;1.70;;;;;;;7.52;98.04;99357.70;182034;1251;44004;-86
2023/12/20 14:01:58;;;;;;;6.60;2.20;;;;;;;7.50;97.35;99366.83;182022;1251;43855;-86
2023/12/20 14:06:01;;;;;;;3.10;1.60;;;;;;;7.49;97.21;99363.94;181917;1251;43994;-86
2023/12/20 14:10:06;;;;;;;6.50;1.90;;;;;;;7.46;96.56;99363.00;181983;1251;44015;-86
2023/12/20 14:14:09;;;;;;;4.80;1.90;;;;;;;7.41;96.18;99370.63;181900;1251;59356;-86
2023/12/20 14:18:14;;;;;;;3.90;1.60;;;;;;;7.33;95.63;99369.52;181875;1251;44002;-88
2023/12/20 14:22:18;;;;;;;3.70;2.10;;;;;;;7.35;95.99;99369.50;181995;1251;44050;-82
2023/12/20 14:26:22;;;;;;;10.40;2.70;;;;;;;7.39;95.13;99367.27;182046;1251;43844;-86
2023/12/20 14:30:25;;;;;;;2.70;2.00;;;;;;;7.33;93.59;99368.09;182135;1251;43717;-85
2023/12/20 14:34:31;;;;;;;5.30;2.70;;;;;;;7.31;94.84;99375.48;182203;1250;59627;-84
2023/12/20 14:38:35;;;;;;;;;;;;;;;7.20;94.66;99369.30;182205;1251;44430;-88
2023/12/20 14:42:39;;;;;;;3.10;1.80;;;;;;;7.14;94.87;99369.80;182223;1251;43493;-86
2023/12/20 14:46:43;;;;;;;4.30;2.00;;;;;;;7.07;95.18;99363.48;182183;1251;44679;-85
2023/12/20 14:50:48;;;;;;;3.80;2.40;;;;;;;7.02;95.16;99360.56;181954;1251;43866;-88
2023/12/20 14:54:51;;;;;;;5.10;2.20;;;;;;;7.02;95.51;99360.54;182152;1251;59484;-88
2023/12/20 14:58:55;;;;;;;3.70;1.90;;;;;;;7.03;94.45;99344.96;182123;1251;44257;-88
2023/12/20 15:03:00;;;;;;;4.40;2.30;;;;;;;7.04;94.39;99339.98;181953;1251;43970;-90
2023/12/20 15:07:06;;;;;;;4.50;1.60;;;;;;;7.01;93.57;99339.52;182187;1251;44180;-89
2023/12/20 15:11:10;;;;;;;5.90;1.80;;;;;;;6.93;94.45;99335.52;182166;1251;44710;-86
2023/12/20 15:15:13;;;;;;;4.80;2.50;;;;;;;6.89;94.40;99332.55;182164;1251;58262;-89
2023/12/20 15:19:17;;;;;;;6.50;1.40;;;;;;;6.85;95.49;99322.42;182051;1251;43814;-88
2023/12/20 15:23:25;;;;;;;4.70;2.10;;;;;;;6.76;94.91;99311.58;182017;1250;44054;-88
2023/12/20 15:27:29;;;;;;;4.00;1.90;;;;;;;6.82;95.07;99321.67;181960;1251;44114;-87
2023/12/20 15:31:32;;;;;;;7.90;3.20;;;;;;;6.84;94.44;99318.11;181997;1251;44034;-87
2023/12/20 15:35:36;;;;;;;4.10;2.40;;;;;;;6.92;95.07;99319.80;181903;1251;60326;-86
2023/12/20 15:39:41;;;;;;;2.90;1.80;;;;;;;6.98;94.30;99312.92;181882;1251;44038;-87
2023/12/20 15:43:44;;;;;;;3.60;1.90;;;;;;;7.04;93.39;99301.73;181863;1251;44352;-84
2023/12/20 15:47:48;;;;;;;3.00;1.40;;;;;;;7.07;92.72;99294.59;181982;1251;43841;-87
2023/12/20 15:51:52;;;;;;;4.30;2.60;;;;;;;7.12;92.65;99295.38;181958;1251;43833;-85
2023/12/20 15:55:55;;;;;;;4.50;2.00;;;;;;;7.19;92.07;99292.16;181926;1251;60221;-85
2023/12/20 15:59:58;;;;;;;2.70;1.70;;;;;;;7.24;92.04;99291.91;181906;1252;43745;-85
2023/12/20 16:04:02;;;;;;;5.10;2.00;;;;;;;7.28;90.60;99283.69;181978;1251;43656;-87
2023/12/20 16:08:06;;;;;;;6.80;2.10;;;;;;;7.32;90.17;99283.85;181969;1251;43891;-88
2023/12/20 16:12:10;;;;;;;4.20;1.80;;;;;;;7.35;89.99;99291.73;181978;1251;44070;-86
2023/12/20 16:16:13;;;;;;;4.00;2.30;;;;;;;7.39;89.38;99285.39;181986;1251;59229;-85
2023/12/20 16:20:16;;;;;;;3.30;2.20;;;;;;;7.45;88.77;99281.02;181808;1253;44296;-85
2023/12/20 16:24:20;;;;;;;3.20;2.10;;;;;;;7.52;87.77;99280.81;181972;1251;44042;-86
2023/12/20 16:28:23;;;;;;;4.20;1.90;;;;;;;7.58;87.23;99279.06;181772;1250;44346;-87
2023/12/20 16:32:26;;;;;;;1.10;1.00;;;;;;;7.62;87.32;99279.58;181937;1250;44073;-86
2023/12/20 16:36:49;;;;;;;2.50;1.60;;;;;;;7.61;86.54;99277.06;181879;1250;59537;-85
2023/12/20 16:40:52;;;;;;;4.60;1.60;;;;;;;7.59;87.09;99274.34;181834;1251;43956;-84
2023/12/20 16:44:56;;;;;;;2.50;1.10;;;;;;;7.57;87.27;99275.89;181863;1251;43877;-86
2023/12/20 17:20:38;;;;;;;3.10;2.00;;;;;;;7.51;89.53;99278.70;174024;1293;580632;-86
2023/12/20 17:24:40;;;;;;;5.80;2.30;;;;;;;7.57;88.87;99273.65;177873;1263;97108;-87
2023/12/20 17:28:42;;;;;;;2.80;1.60;;;;;;;7.44;89.53;99270.18;179164;1261;44511;-85
2023/12/20 17:32:48;;;;;;;4.00;2.20;;;;;;;7.40;90.17;99280.05;178242;1260;45895;-83
2023/12/20 17:36:50;;;;;;;2.90;1.60;;;;;;;7.39;91.09;99278.66;179319;1256;46163;-82
2023/12/20 17:40:52;;;;;;;2.80;1.50;;;;;;;7.41;91.11;99282.95;178933;1256;45896;-83
2023/12/20 17:44:54;;;;;;;2.00;1.70;;;;;;;7.47;91.18;99287.76;179790;1257;58806;-85
2023/12/20 17:48:56;;;;;;;3.00;2.00;;;;;;;7.46;91.38;99292.38;178319;1258;46417;-85
2023/12/20 17:52:59;;;;;;;2.40;1.40;;;;;;;7.46;91.49;99302.11;178663;1257;46119;-86
2023/12/20 17:57:00;;;;;;;2.10;1.40;;;;;;;7.46;92.09;99307.95;180325;1256;46109;-86
2023/12/20 18:01:03;;;;;;;4.20;1.90;;;;;;;7.47;92.45;99310.89;180150;1257;46016;-86
2023/12/20 18:05:05;;;;;;;7.00;3.00;;;;;;;7.45;92.40;99324.91;180554;1256;59864;-88
2023/12/20 18:09:07;;;;;;;3.90;1.70;;;;;;;7.44;92.09;99321.37;178970;1256;45878;-85
2023/12/20 18:13:08;;;;;;;6.10;2.40;;;;;;;7.40;92.64;99328.66;181520;1253;43911;-88
2023/12/20 18:17:10;;;;;;;1.40;1.10;;;;;;;7.41;93.67;99337.62;179003;1254;46132;-86
2023/12/20 18:21:12;;;;;;;2.70;1.20;;;;;;;7.35;93.76;99339.20;179943;1252;46096;-86
2023/12/20 18:25:13;;;;;;;1.70;1.50;;;;;;;7.34;94.26;99347.91;178604;1253;58390;-84
2023/12/20 18:29:16;;;;;;;4.90;2.10;;;;;;;7.30;95.07;99340.80;179971;1253;46200;-86
2023/12/20 18:33:18;;;;;;;0.90;0.70;;;;;;;7.24;95.94;99341.48;179855;1253;46086;-86
2023/12/20 18:37:20;;;;;;;2.90;1.30;;;;;;;7.15;97.09;99349.11;181218;1254;44343;-89
2023/12/20 18:41:21;;;;;;;2.70;1.90;;;;;;;7.02;98.24;99356.81;181347;1253;43822;-87
2023/12/20 18:45:23;;;;;;;3.60;1.90;;;;;;;6.85;99.65;99371.25;180591;1256;59428;-85
2023/12/20 18:49:25;;;;;;;3.00;1.40;;;;;;;6.71;100.00;99386.69;180362;1253;44799;-83
2023/12/20 18:53:28;;;;;;;3.80;1.40;;;;;;;6.60;100.00;99382.58;179353;1253;46021;-86
2023/12/20 18:57:30;;;;;;;4.60;1.60;;;;;;;6.57;100.00;99393.21;180186;1254;45972;-87
2023/12/20 19:01:32;;;;;;;2.20;1.70;;;;;;;6.49;100.00;99395.27;180440;1253;46023;-87
2023/12/20 19:05:34;;;;;;;3.30;1.30;;;;;;;6.44;100.00;99392.33;179969;1253;58356;-87
2023/12/20 19:09:36;;;;;;;5.20;2.40;;;;;;;6.40;100.00;99393.85;180928;1253;44006;-87
2023/12/20 19:13:37;;;;;;;1.70;1.40;;;;;;;6.37;100.00;99390.89;180337;1253;46008;-86
2023/12/20 19:17:39;;;;;;;2.50;1.20;;;;;;;6.30;100.00;99388.81;180404;1254;44280;-88
2023/12/20 19:21:44;;;;;;;2.50;1.80;;;;;;;6.27;100.00;99391.20;179596;1253;45093;-88
2023/12/20 19:25:46;;;;;;;2.90;1.00;;;;;;;6.26;100.00;99387.67;178264;1253;58476;-89
2023/12/20 19:29:48;;;;;;;1.90;1.60;;;;;;;6.21;100.00;99391.09;178689;1254;44197;-88
2023/12/20 19:33:52;;;;;;;2.20;1.50;;;;;;;6.22;100.00;99397.52;179849;1253;46007;-88